createdAt,value
2018-12-25T00:04:30.414Z,98559.01
2018-12-25T00:09:44.408Z,98566.91
2018-12-25T00:14:52.989Z,98565.80
2018-12-25T00:20:07.039Z,98564.14
2018-12-25T00:25:15.051Z,98577.88
2018-12-25T00:30:29.522Z,98577.88
2018-12-25T00:35:37.143Z,98569.33
2018-12-25T00:40:51.112Z,98555.20
2018-12-25T00:51:36.633Z,98561.75
2018-12-25T00:56:44.646Z,98563.34
2018-12-25T01:01:55.100Z,98564.09
2018-12-25T01:07:55.600Z,98571.88
2018-12-25T01:13:09.035Z,98587.41
2018-12-25T01:18:22.485Z,98602.48
2018-12-25T01:23:29.871Z,98599.66
2018-12-25T01:28:44.035Z,98602.97
2018-12-25T01:33:57.615Z,98603.23
2018-12-25T01:39:12.077Z,98614.78
2018-12-25T01:44:28.692Z,98611.89
2018-12-25T01:49:36.672Z,98615.18
2018-12-25T01:54:44.771Z,98621.25
2018-12-25T02:16:31.060Z,98635.33
2018-12-25T02:21:39.428Z,98632.97
2018-12-25T02:26:53.403Z,98630.29
2018-12-25T02:32:06.884Z,98623.24
2018-12-25T02:37:20.555Z,98616.09
2018-12-25T02:42:28.281Z,98606.48
2018-12-25T02:47:46.795Z,98597.69
2018-12-25T02:53:06.414Z,98602.35
2018-12-25T02:58:27.258Z,98596.64
2018-12-25T03:09:00.690Z,98579.03
2018-12-25T03:19:59.805Z,98563.77
2018-12-25T03:25:10.110Z,98557.66
2018-12-25T03:30:25.600Z,98567.52
2018-12-25T03:35:39.585Z,98573.38
2018-12-25T03:40:52.692Z,98592.59
2018-12-25T03:46:00.127Z,98592.48
2018-12-25T03:51:07.268Z,98581.57
2018-12-25T03:56:21.263Z,98584.51
2018-12-25T04:01:29.694Z,98583.93
2018-12-25T04:06:43.693Z,98585.36
2018-12-25T04:11:51.100Z,98595.67
2018-12-25T04:17:07.435Z,98601.55
2018-12-25T04:22:18.221Z,98594.86
2018-12-25T04:27:32.200Z,98589.09
2018-12-25T04:32:40.528Z,98589.30
2018-12-25T04:37:54.511Z,98590.78
2018-12-25T04:43:02.208Z,98584.77
2018-12-25T04:48:16.194Z,98586.28
2018-12-25T04:53:24.364Z,98586.67
2018-12-25T04:58:56.201Z,98588.72
2018-12-25T05:04:09.357Z,98609.48
2018-12-25T05:09:17.317Z,98612.52
2018-12-25T05:14:31.306Z,98618.42
2018-12-25T05:19:38.768Z,98611.54
2018-12-25T05:24:52.756Z,98619.99
2018-12-25T05:29:47.359Z,98622.72
2018-12-25T05:35:01.363Z,98616.89
2018-12-25T05:40:15.344Z,98624.06
2018-12-25T05:45:28.839Z,98628.39
2018-12-25T05:50:23.488Z,98630.53
2018-12-25T05:55:56.805Z,98630.66
2018-12-25T06:00:51.434Z,98634.70
2018-12-25T06:06:06.941Z,98640.50
2018-12-25T06:11:20.923Z,98640.10
2018-12-25T06:16:28.465Z,98637.74
2018-12-25T06:21:42.454Z,98649.91
2018-12-25T06:26:49.903Z,98642.95
2018-12-25T06:31:44.511Z,98635.50
2018-12-25T06:36:58.480Z,98639.24
2018-12-25T06:42:11.941Z,98637.54
2018-12-25T06:47:24.655Z,98640.12
2018-12-25T06:52:40.633Z,98634.36
2018-12-25T06:57:54.171Z,98643.21
2018-12-25T07:03:05.340Z,98641.43
2018-12-25T07:08:19.330Z,98650.77
2018-12-25T07:13:27.420Z,98640.14
2018-12-25T07:19:26.374Z,98644.36
2018-12-25T07:24:40.336Z,98641.77
2018-12-25T07:29:47.932Z,98633.84
2018-12-25T07:35:01.926Z,98638.38
2018-12-25T07:39:56.537Z,98638.75
2018-12-25T07:45:47.572Z,98645.93
2018-12-25T07:51:01.557Z,98635.20
2018-12-25T07:56:09.321Z,98638.01
2018-12-25T08:01:23.307Z,98637.89
2018-12-25T08:06:31.018Z,98629.37
2018-12-25T08:11:45.003Z,98629.03
2018-12-25T08:16:52.384Z,98634.05
2018-12-25T08:22:06.361Z,98631.16
2018-12-25T08:32:59.228Z,98633.61
2018-12-25T08:43:48.619Z,98635.87
2018-12-25T08:48:56.127Z,98641.06
2018-12-25T08:54:04.199Z,98641.17
2018-12-25T09:10:26.992Z,98633.05
2018-12-25T09:15:37.779Z,98647.16
2018-12-25T09:20:51.765Z,98657.45
2018-12-25T09:26:02.196Z,98669.89
2018-12-25T09:30:56.819Z,98675.52
2018-12-25T09:42:19.177Z,98666.97
2018-12-25T09:47:13.824Z,98657.77
2018-12-25T09:52:25.042Z,98667.33
2018-12-25T09:57:39.025Z,98673.59
2018-12-25T10:02:49.822Z,98674.27
2018-12-25T10:08:03.876Z,98664.88
2018-12-25T10:13:20.717Z,98671.94
2018-12-25T10:18:27.992Z,98671.84
2018-12-25T10:24:19.013Z,98663.54
2018-12-25T10:29:26.816Z,98659.22
2018-12-25T10:34:21.433Z,98672.34
2018-12-25T10:39:16.037Z,98660.41
2018-12-25T10:44:30.021Z,98653.49
2018-12-25T10:54:55.483Z,98644.75
2018-12-25T11:00:11.998Z,98647.30
2018-12-25T11:05:20.747Z,98640.36
2018-12-25T11:10:52.518Z,98651.78
2018-12-25T11:21:49.545Z,98655.23
2018-12-25T11:27:06.030Z,98633.88
2018-12-25T11:32:14.045Z,98635.05
2018-12-25T11:37:28.031Z,98636.62
2018-12-25T11:42:36.070Z,98622.11
2018-12-25T11:47:50.064Z,98628.80
2018-12-25T11:52:57.779Z,98616.15
2018-12-25T11:58:13.865Z,98621.20
2018-12-25T12:03:21.903Z,98624.38
2018-12-25T12:08:35.893Z,98620.01
2018-12-25T12:19:26.553Z,98622.27
2018-12-25T12:24:34.795Z,98624.71
2018-12-25T12:29:53.226Z,98633.73
2018-12-25T12:35:07.204Z,98621.22
2018-12-25T12:40:15.312Z,98616.80
2018-12-25T12:45:31.713Z,98614.36
2018-12-25T12:50:39.692Z,98598.83
2018-12-25T12:55:47.746Z,98601.28
2018-12-25T13:00:55.207Z,98604.83
2018-12-25T13:06:09.259Z,98604.80
2018-12-25T13:11:17.381Z,98605.44
2018-12-25T13:16:31.368Z,98603.20
2018-12-25T13:27:16.458Z,98622.02
2018-12-25T13:32:30.443Z,98617.89
2018-12-25T13:42:43.368Z,98633.92
2018-12-25T13:47:37.984Z,98631.71
2018-12-25T13:52:45.816Z,98642.25
2018-12-25T13:57:59.801Z,98646.02
2018-12-25T14:03:07.209Z,98652.30
2018-12-25T14:08:02.685Z,98648.53
2018-12-25T14:13:19.170Z,98653.28
2018-12-25T14:29:21.527Z,98681.08
2018-12-25T14:34:35.536Z,98678.64
2018-12-25T14:39:42.947Z,98673.59
2018-12-25T14:44:56.935Z,98669.16
2018-12-25T14:50:04.572Z,98669.76
2018-12-25T15:00:47.098Z,98662.58
2018-12-25T15:05:57.796Z,98669.55
2018-12-25T15:11:11.761Z,98676.59
2018-12-25T15:16:19.757Z,98686.58
2018-12-25T15:21:33.740Z,98674.75
2018-12-25T15:32:25.076Z,98672.48
2018-12-25T15:37:39.057Z,98683.56
2018-12-25T15:42:46.314Z,98689.46
2018-12-25T15:48:00.416Z,98695.39
2018-12-25T15:53:09.173Z,98705.17
2018-12-25T15:58:23.148Z,98702.72
2018-12-25T16:03:30.862Z,98706.84
2018-12-25T16:08:44.837Z,98703.83
2018-12-25T16:13:52.833Z,98706.66
2018-12-25T16:19:06.818Z,98713.59
2018-12-25T16:24:13.682Z,98716.55
2018-12-25T16:29:29.477Z,98717.53
2018-12-25T16:34:37.785Z,98711.20
2018-12-25T16:39:51.769Z,98711.88
2018-12-25T16:50:35.879Z,98696.41
2018-12-25T16:55:43.435Z,98701.23
2018-12-25T17:00:51.373Z,98700.73
2018-12-25T17:06:05.373Z,98695.14
2018-12-25T17:11:13.661Z,98686.70
2018-12-25T17:16:27.647Z,98683.20
2018-12-25T17:21:35.503Z,98682.21
2018-12-25T17:26:49.493Z,98686.89
2018-12-25T17:31:57.192Z,98680.95
2018-12-25T17:37:11.198Z,98684.00
2018-12-25T17:42:17.703Z,98684.56
2018-12-25T17:47:31.708Z,98681.13
2018-12-25T17:52:39.559Z,98677.33
2018-12-25T17:57:53.543Z,98682.40
2018-12-25T18:03:01.791Z,98674.39
2018-12-25T18:08:15.787Z,98678.84
2018-12-25T18:13:24.011Z,98683.36
2018-12-25T18:18:38.000Z,98690.69
2018-12-25T18:23:45.487Z,98688.48
2018-12-25T18:28:59.482Z,98694.58
2018-12-25T18:34:06.872Z,98690.23
2018-12-25T18:39:20.850Z,98688.70
2018-12-25T18:44:28.459Z,98682.56
2018-12-25T18:49:36.271Z,98679.41
2018-12-25T18:54:43.426Z,98686.17
2018-12-25T19:00:15.495Z,98675.20
2018-12-25T19:05:22.807Z,98687.61
2018-12-25T19:10:36.803Z,98688.93
2018-12-25T19:15:44.657Z,98693.10
2018-12-25T19:20:58.651Z,98688.23
2018-12-25T19:26:06.775Z,98684.69
2018-12-25T19:31:20.761Z,98684.79
2018-12-25T19:41:33.415Z,98670.13
2018-12-25T19:46:47.437Z,98668.53
2018-12-25T19:51:54.825Z,98661.17
2018-12-25T19:57:09.896Z,98651.22
2018-12-25T20:02:18.034Z,98641.75
2018-12-25T20:07:37.936Z,98628.78
2018-12-25T20:13:11.130Z,98642.16
2018-12-25T20:18:45.960Z,98638.13
2018-12-25T20:23:55.547Z,98636.22
2018-12-25T20:29:48.202Z,98633.06
2018-12-25T20:35:35.252Z,98629.37
2018-12-25T20:46:38.311Z,98622.23
2018-12-25T20:52:05.900Z,98616.76
2018-12-25T20:57:58.509Z,98612.72
2018-12-25T21:03:49.449Z,98612.27
2018-12-25T21:09:16.957Z,98599.14
2018-12-25T21:15:09.507Z,98593.20
2018-12-25T21:20:19.204Z,98592.40
2018-12-25T21:26:13.142Z,98578.48
2018-12-25T21:31:19.793Z,98569.25
2018-12-25T21:36:33.932Z,98576.75
2018-12-25T21:41:41.946Z,98576.55
2018-12-25T21:46:56.026Z,98573.20
2018-12-25T21:52:03.078Z,98552.25
2018-12-25T21:57:17.134Z,98546.61
2018-12-25T22:02:25.473Z,98550.75
2018-12-25T22:13:42.813Z,98538.31
2018-12-25T22:18:54.871Z,98530.73
2018-12-25T22:29:45.638Z,98528.89
2018-12-25T22:35:46.259Z,98526.58
2018-12-25T22:41:00.254Z,98533.59
2018-12-25T22:51:27.355Z,98518.09
2018-12-25T22:57:02.149Z,98512.85
2018-12-25T23:02:22.280Z,98512.30
2018-12-25T23:07:36.272Z,98521.64
2018-12-25T23:12:43.986Z,98516.00
2018-12-25T23:17:58.041Z,98522.79
2018-12-25T23:23:06.217Z,98521.45
2018-12-25T23:28:00.841Z,98526.42
2018-12-25T23:32:55.561Z,98523.55
2018-12-25T23:38:09.565Z,98532.36
2018-12-25T23:43:17.102Z,98529.30
2018-12-25T23:48:31.081Z,98523.01
2018-12-25T23:53:44.175Z,98524.33
2018-12-25T23:58:52.128Z,98524.16
